sensor_id;sensor_type;location;lat;lon;timestamp;temperature;humidity
75451;DHT22;64029;48.244;9.188;2023-05-10T00:01:27;13.30;86.00
75451;DHT22;64029;48.244;9.188;2023-05-10T00:03:54;13.30;86.00
75451;DHT22;64029;48.244;9.188;2023-05-10T00:06:21;13.30;86.00
75451;DHT22;64029;48.244;9.188;2023-05-10T00:08:49;13.30;86.00
75451;DHT22;64029;48.244;9.188;2023-05-10T00:11:16;13.30;86.00
75451;DHT22;64029;48.244;9.188;2023-05-10T00:13:43;13.20;85.90
75451;DHT22;64029;48.244;9.188;2023-05-10T00:16:10;13.20;86.10
75451;DHT22;64029;48.244;9.188;2023-05-10T00:18:38;13.20;86.00
75451;DHT22;64029;48.244;9.188;2023-05-10T00:21:05;13.20;85.90
75451;DHT22;64029;48.244;9.188;2023-05-10T00:23:32;13.20;86.90
75451;DHT22;64029;48.244;9.188;2023-05-10T00:26:00;13.10;87.40
75451;DHT22;64029;48.244;9.188;2023-05-10T00:28:27;13.10;86.70
75451;DHT22;64029;48.244;9.188;2023-05-10T00:30:54;13.10;86.10
75451;DHT22;64029;48.244;9.188;2023-05-10T00:33:21;13.10;86.10
75451;DHT22;64029;48.244;9.188;2023-05-10T00:35:48;13.10;86.10
75451;DHT22;64029;48.244;9.188;2023-05-10T00:38:15;13.00;85.80
75451;DHT22;64029;48.244;9.188;2023-05-10T00:40:42;13.00;85.90
75451;DHT22;64029;48.244;9.188;2023-05-10T00:43:10;13.00;86.30
75451;DHT22;64029;48.244;9.188;2023-05-10T00:45:38;13.00;85.30
75451;DHT22;64029;48.244;9.188;2023-05-10T00:48:05;13.00;85.10
75451;DHT22;64029;48.244;9.188;2023-05-10T00:50:32;13.00;85.00
75451;DHT22;64029;48.244;9.188;2023-05-10T00:53:00;12.90;85.00
75451;DHT22;64029;48.244;9.188;2023-05-10T00:55:28;12.90;85.30
75451;DHT22;64029;48.244;9.188;2023-05-10T00:57:55;12.90;85.80
75451;DHT22;64029;48.244;9.188;2023-05-10T01:00:24;12.80;85.70
75451;DHT22;64029;48.244;9.188;2023-05-10T01:02:51;12.90;85.50
75451;DHT22;64029;48.244;9.188;2023-05-10T01:05:18;12.90;85.70
75451;DHT22;64029;48.244;9.188;2023-05-10T01:07:46;12.90;85.00
75451;DHT22;64029;48.244;9.188;2023-05-10T01:10:13;12.90;85.10
75451;DHT22;64029;48.244;9.188;2023-05-10T01:12:43;12.80;85.20
75451;DHT22;64029;48.244;9.188;2023-05-10T01:15:11;12.80;85.90
75451;DHT22;64029;48.244;9.188;2023-05-10T01:17:42;12.80;85.20
75451;DHT22;64029;48.244;9.188;2023-05-10T01:20:11;12.80;85.00
75451;DHT22;64029;48.244;9.188;2023-05-10T01:23:00;12.80;84.90
75451;DHT22;64029;48.244;9.188;2023-05-10T01:25:49;12.80;84.80
75451;DHT22;64029;48.244;9.188;2023-05-10T01:31:30;12.80;85.10
75451;DHT22;64029;48.244;9.188;2023-05-10T01:34:06;12.70;85.20
75451;DHT22;64029;48.244;9.188;2023-05-10T01:36:42;12.70;84.70
75451;DHT22;64029;48.244;9.188;2023-05-10T01:39:15;12.70;84.50
75451;DHT22;64029;48.244;9.188;2023-05-10T01:41:49;12.80;84.50
75451;DHT22;64029;48.244;9.188;2023-05-10T01:44:27;12.70;84.40
75451;DHT22;64029;48.244;9.188;2023-05-10T01:47:01;12.70;84.30
75451;DHT22;64029;48.244;9.188;2023-05-10T01:49:33;12.70;84.40
75451;DHT22;64029;48.244;9.188;2023-05-10T01:52:07;12.70;84.30
75451;DHT22;64029;48.244;9.188;2023-05-10T01:54:35;12.70;84.70
75451;DHT22;64029;48.244;9.188;2023-05-10T01:57:06;12.70;84.40
75451;DHT22;64029;48.244;9.188;2023-05-10T01:59:36;12.60;84.30
75451;DHT22;64029;48.244;9.188;2023-05-10T02:02:06;12.60;84.30
75451;DHT22;64029;48.244;9.188;2023-05-10T02:04:39;12.60;84.40
75451;DHT22;64029;48.244;9.188;2023-05-10T02:07:08;12.60;84.40
75451;DHT22;64029;48.244;9.188;2023-05-10T02:09:36;12.60;84.50
75451;DHT22;64029;48.244;9.188;2023-05-10T02:12:05;12.60;84.60
75451;DHT22;64029;48.244;9.188;2023-05-10T02:14:35;12.60;84.60
75451;DHT22;64029;48.244;9.188;2023-05-10T02:17:05;12.60;84.60
75451;DHT22;64029;48.244;9.188;2023-05-10T02:19:32;12.50;84.60
75451;DHT22;64029;48.244;9.188;2023-05-10T02:22:02;12.50;84.60
75451;DHT22;64029;48.244;9.188;2023-05-10T02:24:30;12.50;84.50
75451;DHT22;64029;48.244;9.188;2023-05-10T02:26:58;12.50;84.70
75451;DHT22;64029;48.244;9.188;2023-05-10T02:29:27;12.50;84.70
75451;DHT22;64029;48.244;9.188;2023-05-10T02:31:55;12.50;84.40
75451;DHT22;64029;48.244;9.188;2023-05-10T02:34:23;12.40;84.50
75451;DHT22;64029;48.244;9.188;2023-05-10T02:36:52;12.40;84.60
75451;DHT22;64029;48.244;9.188;2023-05-10T02:39:21;12.40;84.80
75451;DHT22;64029;48.244;9.188;2023-05-10T02:41:49;12.40;84.50
75451;DHT22;64029;48.244;9.188;2023-05-10T02:44:18;12.40;84.40
75451;DHT22;64029;48.244;9.188;2023-05-10T02:46:45;12.40;84.80
75451;DHT22;64029;48.244;9.188;2023-05-10T02:49:13;12.30;84.70
75451;DHT22;64029;48.244;9.188;2023-05-10T02:51:42;12.30;84.30
75451;DHT22;64029;48.244;9.188;2023-05-10T02:54:12;12.30;84.30
75451;DHT22;64029;48.244;9.188;2023-05-10T02:56:47;12.30;84.50
75451;DHT22;64029;48.244;9.188;2023-05-10T02:59:17;12.30;84.60
75451;DHT22;64029;48.244;9.188;2023-05-10T03:01:43;12.20;84.40
75451;DHT22;64029;48.244;9.188;2023-05-10T03:04:10;12.20;84.30
75451;DHT22;64029;48.244;9.188;2023-05-10T03:06:37;12.20;84.30
75451;DHT22;64029;48.244;9.188;2023-05-10T03:09:04;12.10;84.60
75451;DHT22;64029;48.244;9.188;2023-05-10T03:11:46;12.10;84.30
75451;DHT22;64029;48.244;9.188;2023-05-10T03:14:22;12.10;84.00
75451;DHT22;64029;48.244;9.188;2023-05-10T03:16:56;12.10;84.00
75451;DHT22;64029;48.244;9.188;2023-05-10T03:19:27;12.10;84.00
75451;DHT22;64029;48.244;9.188;2023-05-10T03:21:59;12.10;84.00
75451;DHT22;64029;48.244;9.188;2023-05-10T03:24:30;12.10;84.90
75451;DHT22;64029;48.244;9.188;2023-05-10T03:27:00;12.00;84.10
75451;DHT22;64029;48.244;9.188;2023-05-10T03:29:28;12.00;84.20
75451;DHT22;64029;48.244;9.188;2023-05-10T03:31:57;12.00;84.40
75451;DHT22;64029;48.244;9.188;2023-05-10T03:34:24;11.90;84.50
75451;DHT22;64029;48.244;9.188;2023-05-10T03:36:51;11.90;84.60
75451;DHT22;64029;48.244;9.188;2023-05-10T03:39:18;11.90;84.60
75451;DHT22;64029;48.244;9.188;2023-05-10T03:41:46;11.90;84.60
75451;DHT22;64029;48.244;9.188;2023-05-10T03:44:14;11.90;84.70
75451;DHT22;64029;48.244;9.188;2023-05-10T03:46:41;11.80;84.60
75451;DHT22;64029;48.244;9.188;2023-05-10T03:49:08;11.80;84.70
75451;DHT22;64029;48.244;9.188;2023-05-10T03:51:35;11.80;84.70
75451;DHT22;64029;48.244;9.188;2023-05-10T03:54:02;11.80;84.70
75451;DHT22;64029;48.244;9.188;2023-05-10T03:56:29;11.70;84.70
75451;DHT22;64029;48.244;9.188;2023-05-10T03:58:55;11.70;84.70
75451;DHT22;64029;48.244;9.188;2023-05-10T04:01:24;11.70;84.70
75451;DHT22;64029;48.244;9.188;2023-05-10T04:03:51;11.70;85.00
75451;DHT22;64029;48.244;9.188;2023-05-10T04:06:17;11.60;85.30
75451;DHT22;64029;48.244;9.188;2023-05-10T04:08:44;11.60;85.10
75451;DHT22;64029;48.244;9.188;2023-05-10T04:11:11;11.60;85.10
75451;DHT22;64029;48.244;9.188;2023-05-10T04:13:39;11.60;85.10
75451;DHT22;64029;48.244;9.188;2023-05-10T04:16:06;11.50;85.00
75451;DHT22;64029;48.244;9.188;2023-05-10T04:18:34;11.50;84.90
75451;DHT22;64029;48.244;9.188;2023-05-10T04:21:01;11.50;85.10
75451;DHT22;64029;48.244;9.188;2023-05-10T04:23:28;11.50;84.90
75451;DHT22;64029;48.244;9.188;2023-05-10T04:25:59;11.50;85.10
75451;DHT22;64029;48.244;9.188;2023-05-10T04:28:26;11.50;85.10
75451;DHT22;64029;48.244;9.188;2023-05-10T04:30:59;11.50;85.10
75451;DHT22;64029;48.244;9.188;2023-05-10T04:33:26;11.40;85.10
75451;DHT22;64029;48.244;9.188;2023-05-10T04:35:55;11.40;85.30
75451;DHT22;64029;48.244;9.188;2023-05-10T04:38:21;11.40;85.90
75451;DHT22;64029;48.244;9.188;2023-05-10T04:40:48;11.40;85.50
75451;DHT22;64029;48.244;9.188;2023-05-10T04:43:15;11.40;85.40
75451;DHT22;64029;48.244;9.188;2023-05-10T04:45:42;11.40;85.60
75451;DHT22;64029;48.244;9.188;2023-05-10T04:48:09;11.40;85.60
75451;DHT22;64029;48.244;9.188;2023-05-10T04:50:35;11.40;85.60
75451;DHT22;64029;48.244;9.188;2023-05-10T04:53:04;11.40;85.70
75451;DHT22;64029;48.244;9.188;2023-05-10T04:55:30;11.40;85.50
75451;DHT22;64029;48.244;9.188;2023-05-10T04:57:57;11.40;85.60
75451;DHT22;64029;48.244;9.188;2023-05-10T05:00:24;11.40;85.50
75451;DHT22;64029;48.244;9.188;2023-05-10T05:02:51;11.40;85.70
75451;DHT22;64029;48.244;9.188;2023-05-10T05:05:18;11.40;85.60
75451;DHT22;64029;48.244;9.188;2023-05-10T05:07:45;11.40;86.30
75451;DHT22;64029;48.244;9.188;2023-05-10T05:10:13;11.40;85.90
75451;DHT22;64029;48.244;9.188;2023-05-10T05:12:40;11.40;85.80
75451;DHT22;64029;48.244;9.188;2023-05-10T05:15:08;11.40;85.70
75451;DHT22;64029;48.244;9.188;2023-05-10T05:17:35;11.40;85.80
75451;DHT22;64029;48.244;9.188;2023-05-10T05:20:02;11.40;85.90
75451;DHT22;64029;48.244;9.188;2023-05-10T05:22:29;11.40;86.10
75451;DHT22;64029;48.244;9.188;2023-05-10T05:24:56;11.40;87.10
75451;DHT22;64029;48.244;9.188;2023-05-10T05:27:25;11.40;86.60
75451;DHT22;64029;48.244;9.188;2023-05-10T05:29:53;11.40;86.40
75451;DHT22;64029;48.244;9.188;2023-05-10T05:32:20;11.40;87.00
75451;DHT22;64029;48.244;9.188;2023-05-10T05:34:47;11.40;86.20
75451;DHT22;64029;48.244;9.188;2023-05-10T05:37:15;11.50;86.20
75451;DHT22;64029;48.244;9.188;2023-05-10T05:39:42;11.40;86.40
75451;DHT22;64029;48.244;9.188;2023-05-10T05:42:09;11.50;86.20
75451;DHT22;64029;48.244;9.188;2023-05-10T05:44:38;11.50;86.00
75451;DHT22;64029;48.244;9.188;2023-05-10T05:47:05;11.50;86.10
75451;DHT22;64029;48.244;9.188;2023-05-10T05:49:32;11.50;85.90
75451;DHT22;64029;48.244;9.188;2023-05-10T05:52:00;11.50;85.70
75451;DHT22;64029;48.244;9.188;2023-05-10T05:54:27;11.50;85.70
75451;DHT22;64029;48.244;9.188;2023-05-10T05:56:54;11.60;85.50
75451;DHT22;64029;48.244;9.188;2023-05-10T05:59:22;11.60;85.80
75451;DHT22;64029;48.244;9.188;2023-05-10T06:01:50;11.60;86.40
75451;DHT22;64029;48.244;9.188;2023-05-10T06:04:18;11.60;85.80
75451;DHT22;64029;48.244;9.188;2023-05-10T06:06:45;11.60;86.70
75451;DHT22;64029;48.244;9.188;2023-05-10T06:09:12;11.60;86.00
75451;DHT22;64029;48.244;9.188;2023-05-10T06:11:39;11.60;87.20
75451;DHT22;64029;48.244;9.188;2023-05-10T06:14:05;11.60;86.90
75451;DHT22;64029;48.244;9.188;2023-05-10T06:16:33;11.70;85.70
75451;DHT22;64029;48.244;9.188;2023-05-10T06:19:01;11.70;85.60
75451;DHT22;64029;48.244;9.188;2023-05-10T06:21:28;11.70;86.40
75451;DHT22;64029;48.244;9.188;2023-05-10T06:23:55;11.70;86.00
75451;DHT22;64029;48.244;9.188;2023-05-10T06:26:22;11.70;85.80
75451;DHT22;64029;48.244;9.188;2023-05-10T06:28:49;11.70;86.20
75451;DHT22;64029;48.244;9.188;2023-05-10T06:31:16;11.70;85.60
75451;DHT22;64029;48.244;9.188;2023-05-10T06:33:43;11.70;85.40
75451;DHT22;64029;48.244;9.188;2023-05-10T06:36:11;11.80;85.80
75451;DHT22;64029;48.244;9.188;2023-05-10T06:38:38;11.80;85.40
75451;DHT22;64029;48.244;9.188;2023-05-10T06:41:05;11.80;85.60
75451;DHT22;64029;48.244;9.188;2023-05-10T06:43:32;11.80;85.20
75451;DHT22;64029;48.244;9.188;2023-05-10T06:45:59;11.90;85.30
75451;DHT22;64029;48.244;9.188;2023-05-10T06:48:26;11.90;85.50
75451;DHT22;64029;48.244;9.188;2023-05-10T06:50:53;11.90;85.40
75451;DHT22;64029;48.244;9.188;2023-05-10T06:53:21;11.90;85.20
75451;DHT22;64029;48.244;9.188;2023-05-10T06:55:49;12.00;85.20
75451;DHT22;64029;48.244;9.188;2023-05-10T06:58:16;12.00;85.10
75451;DHT22;64029;48.244;9.188;2023-05-10T07:00:43;12.00;86.10
75451;DHT22;64029;48.244;9.188;2023-05-10T07:03:10;12.00;86.10
75451;DHT22;64029;48.244;9.188;2023-05-10T07:05:37;12.00;85.70
75451;DHT22;64029;48.244;9.188;2023-05-10T07:08:04;12.00;85.30
75451;DHT22;64029;48.244;9.188;2023-05-10T07:10:32;12.10;85.40
75451;DHT22;64029;48.244;9.188;2023-05-10T07:12:59;12.10;85.30
75451;DHT22;64029;48.244;9.188;2023-05-10T07:15:26;12.10;85.20
75451;DHT22;64029;48.244;9.188;2023-05-10T07:17:54;12.20;85.20
75451;DHT22;64029;48.244;9.188;2023-05-10T07:20:20;12.10;85.20
75451;DHT22;64029;48.244;9.188;2023-05-10T07:22:47;12.10;85.10
75451;DHT22;64029;48.244;9.188;2023-05-10T07:25:14;12.20;85.20
75451;DHT22;64029;48.244;9.188;2023-05-10T07:27:42;12.20;85.20
75451;DHT22;64029;48.244;9.188;2023-05-10T07:30:10;12.20;85.20
75451;DHT22;64029;48.244;9.188;2023-05-10T07:32:37;12.20;85.60
75451;DHT22;64029;48.244;9.188;2023-05-10T07:35:05;12.30;85.30
75451;DHT22;64029;48.244;9.188;2023-05-10T07:37:32;12.30;85.30
75451;DHT22;64029;48.244;9.188;2023-05-10T07:39:59;12.30;85.10
75451;DHT22;64029;48.244;9.188;2023-05-10T07:42:25;12.40;85.20
75451;DHT22;64029;48.244;9.188;2023-05-10T07:44:54;12.40;86.30
75451;DHT22;64029;48.244;9.188;2023-05-10T07:47:20;12.40;85.50
75451;DHT22;64029;48.244;9.188;2023-05-10T07:49:47;12.40;85.20
75451;DHT22;64029;48.244;9.188;2023-05-10T07:52:14;12.40;85.10
75451;DHT22;64029;48.244;9.188;2023-05-10T07:54:41;12.40;85.10
75451;DHT22;64029;48.244;9.188;2023-05-10T07:57:08;12.50;85.00
75451;DHT22;64029;48.244;9.188;2023-05-10T07:59:35;12.40;84.90
75451;DHT22;64029;48.244;9.188;2023-05-10T08:02:03;12.50;85.10
75451;DHT22;64029;48.244;9.188;2023-05-10T08:04:30;12.50;85.00
75451;DHT22;64029;48.244;9.188;2023-05-10T08:06:57;12.50;84.80
75451;DHT22;64029;48.244;9.188;2023-05-10T08:09:24;12.50;84.90
75451;DHT22;64029;48.244;9.188;2023-05-10T08:11:50;12.60;84.80
75451;DHT22;64029;48.244;9.188;2023-05-10T08:14:17;12.60;84.70
75451;DHT22;64029;48.244;9.188;2023-05-10T08:16:46;12.60;84.70
75451;DHT22;64029;48.244;9.188;2023-05-10T08:19:14;12.60;84.40
75451;DHT22;64029;48.244;9.188;2023-05-10T08:21:44;12.60;84.20
75451;DHT22;64029;48.244;9.188;2023-05-10T08:24:11;12.70;84.20
75451;DHT22;64029;48.244;9.188;2023-05-10T08:26:38;12.70;84.00
75451;DHT22;64029;48.244;9.188;2023-05-10T08:29:05;12.70;83.90
75451;DHT22;64029;48.244;9.188;2023-05-10T08:31:32;12.70;83.80
75451;DHT22;64029;48.244;9.188;2023-05-10T08:33:59;12.70;83.70
75451;DHT22;64029;48.244;9.188;2023-05-10T08:36:27;12.70;83.10
75451;DHT22;64029;48.244;9.188;2023-05-10T08:38:54;12.70;83.60
75451;DHT22;64029;48.244;9.188;2023-05-10T08:41:21;12.70;83.50
75451;DHT22;64029;48.244;9.188;2023-05-10T08:43:50;12.70;83.50
75451;DHT22;64029;48.244;9.188;2023-05-10T08:46:18;12.70;83.80
75451;DHT22;64029;48.244;9.188;2023-05-10T08:48:46;12.70;84.10
75451;DHT22;64029;48.244;9.188;2023-05-10T08:51:14;12.60;84.20
75451;DHT22;64029;48.244;9.188;2023-05-10T08:53:43;12.70;84.20
75451;DHT22;64029;48.244;9.188;2023-05-10T08:56:11;12.70;84.00
75451;DHT22;64029;48.244;9.188;2023-05-10T08:58:38;12.60;84.00
75451;DHT22;64029;48.244;9.188;2023-05-10T09:01:05;12.70;84.10
75451;DHT22;64029;48.244;9.188;2023-05-10T09:03:32;12.70;84.10
75451;DHT22;64029;48.244;9.188;2023-05-10T09:05:59;12.60;84.20
75451;DHT22;64029;48.244;9.188;2023-05-10T09:08:26;12.70;84.30
75451;DHT22;64029;48.244;9.188;2023-05-10T09:10:55;12.60;84.60
75451;DHT22;64029;48.244;9.188;2023-05-10T09:13:22;12.70;84.50
75451;DHT22;64029;48.244;9.188;2023-05-10T09:15:49;12.70;84.60
75451;DHT22;64029;48.244;9.188;2023-05-10T09:18:17;12.70;84.50
75451;DHT22;64029;48.244;9.188;2023-05-10T09:20:44;12.70;84.50
75451;DHT22;64029;48.244;9.188;2023-05-10T09:23:11;12.80;84.60
75451;DHT22;64029;48.244;9.188;2023-05-10T09:25:38;12.80;84.80
75451;DHT22;64029;48.244;9.188;2023-05-10T09:28:08;12.80;84.50
75451;DHT22;64029;48.244;9.188;2023-05-10T09:30:36;12.80;84.60
75451;DHT22;64029;48.244;9.188;2023-05-10T09:33:03;12.80;84.40
75451;DHT22;64029;48.244;9.188;2023-05-10T09:35:31;12.80;84.90
75451;DHT22;64029;48.244;9.188;2023-05-10T09:38:00;12.90;84.80
75451;DHT22;64029;48.244;9.188;2023-05-10T09:40:28;12.90;84.90
75451;DHT22;64029;48.244;9.188;2023-05-10T09:42:56;12.90;85.30
75451;DHT22;64029;48.244;9.188;2023-05-10T09:45:26;13.00;84.60
75451;DHT22;64029;48.244;9.188;2023-05-10T09:47:53;13.00;84.70
75451;DHT22;64029;48.244;9.188;2023-05-10T09:50:21;13.10;84.60
75451;DHT22;64029;48.244;9.188;2023-05-10T09:52:49;13.00;84.00
75451;DHT22;64029;48.244;9.188;2023-05-10T09:55:18;13.10;84.10
75451;DHT22;64029;48.244;9.188;2023-05-10T09:57:49;13.00;82.70
75451;DHT22;64029;48.244;9.188;2023-05-10T10:00:20;13.10;82.70
75451;DHT22;64029;48.244;9.188;2023-05-10T10:02:54;13.10;83.00
75451;DHT22;64029;48.244;9.188;2023-05-10T10:05:28;13.10;83.20
75451;DHT22;64029;48.244;9.188;2023-05-10T10:07:55;13.20;82.60
75451;DHT22;64029;48.244;9.188;2023-05-10T10:10:23;13.10;81.00
75451;DHT22;64029;48.244;9.188;2023-05-10T10:12:51;13.20;82.40
75451;DHT22;64029;48.244;9.188;2023-05-10T10:15:18;13.30;83.20
75451;DHT22;64029;48.244;9.188;2023-05-10T10:17:45;13.40;82.80
75451;DHT22;64029;48.244;9.188;2023-05-10T10:20:14;13.40;82.70
75451;DHT22;64029;48.244;9.188;2023-05-10T10:22:41;13.50;80.70
75451;DHT22;64029;48.244;9.188;2023-05-10T10:25:10;13.40;81.40
75451;DHT22;64029;48.244;9.188;2023-05-10T10:27:45;13.30;79.80
75451;DHT22;64029;48.244;9.188;2023-05-10T10:30:21;13.50;81.70
75451;DHT22;64029;48.244;9.188;2023-05-10T10:33:04;13.60;81.30
75451;DHT22;64029;48.244;9.188;2023-05-10T10:35:35;13.60;80.20
75451;DHT22;64029;48.244;9.188;2023-05-10T10:38:02;13.60;79.30
75451;DHT22;64029;48.244;9.188;2023-05-10T10:40:31;13.60;80.00
75451;DHT22;64029;48.244;9.188;2023-05-10T10:43:23;13.60;78.40
75451;DHT22;64029;48.244;9.188;2023-05-10T10:46:10;13.70;79.20
75451;DHT22;64029;48.244;9.188;2023-05-10T10:48:38;13.70;79.10
75451;DHT22;64029;48.244;9.188;2023-05-10T10:51:05;13.80;79.60
75451;DHT22;64029;48.244;9.188;2023-05-10T10:53:32;13.90;80.30
75451;DHT22;64029;48.244;9.188;2023-05-10T10:56:06;13.90;80.60
75451;DHT22;64029;48.244;9.188;2023-05-10T10:58:37;14.00;80.80
75451;DHT22;64029;48.244;9.188;2023-05-10T11:01:14;13.90;76.50
75451;DHT22;64029;48.244;9.188;2023-05-10T11:06:36;13.90;77.50
75451;DHT22;64029;48.244;9.188;2023-05-10T11:09:06;13.90;76.40
75451;DHT22;64029;48.244;9.188;2023-05-10T11:11:34;14.00;78.10
75451;DHT22;64029;48.244;9.188;2023-05-10T11:14:04;14.10;78.30
75451;DHT22;64029;48.244;9.188;2023-05-10T11:16:41;14.10;77.20
75451;DHT22;64029;48.244;9.188;2023-05-10T11:19:10;14.20;78.60
75451;DHT22;64029;48.244;9.188;2023-05-10T11:21:45;14.30;78.90
75451;DHT22;64029;48.244;9.188;2023-05-10T11:24:13;14.30;77.20
75451;DHT22;64029;48.244;9.188;2023-05-10T11:26:40;14.20;75.80
75451;DHT22;64029;48.244;9.188;2023-05-10T11:29:08;14.20;76.50
75451;DHT22;64029;48.244;9.188;2023-05-10T11:31:42;14.20;76.00
75451;DHT22;64029;48.244;9.188;2023-05-10T11:34:09;14.20;75.30
75451;DHT22;64029;48.244;9.188;2023-05-10T11:36:36;14.20;74.50
75451;DHT22;64029;48.244;9.188;2023-05-10T11:39:04;14.30;76.30
75451;DHT22;64029;48.244;9.188;2023-05-10T11:41:31;14.30;75.90
75451;DHT22;64029;48.244;9.188;2023-05-10T11:43:58;14.40;75.30
75451;DHT22;64029;48.244;9.188;2023-05-10T11:46:27;14.40;76.90
75451;DHT22;64029;48.244;9.188;2023-05-10T11:49:01;14.20;75.10
75451;DHT22;64029;48.244;9.188;2023-05-10T11:51:32;14.00;74.70
75451;DHT22;64029;48.244;9.188;2023-05-10T11:53:59;13.90;74.10
75451;DHT22;64029;48.244;9.188;2023-05-10T11:56:26;13.60;72.40
75451;DHT22;64029;48.244;9.188;2023-05-10T11:58:53;13.70;71.50
75451;DHT22;64029;48.244;9.188;2023-05-10T12:01:21;13.60;72.30
75451;DHT22;64029;48.244;9.188;2023-05-10T12:03:50;13.60;71.50
75451;DHT22;64029;48.244;9.188;2023-05-10T12:06:18;13.80;74.30
75451;DHT22;64029;48.244;9.188;2023-05-10T12:08:46;13.80;73.70
75451;DHT22;64029;48.244;9.188;2023-05-10T12:11:13;13.90;74.50
75451;DHT22;64029;48.244;9.188;2023-05-10T12:13:42;14.00;74.90
75451;DHT22;64029;48.244;9.188;2023-05-10T12:16:16;14.00;73.90
75451;DHT22;64029;48.244;9.188;2023-05-10T12:18:43;13.90;72.70
75451;DHT22;64029;48.244;9.188;2023-05-10T12:21:12;14.00;73.00
75451;DHT22;64029;48.244;9.188;2023-05-10T12:23:39;13.90;72.50
75451;DHT22;64029;48.244;9.188;2023-05-10T12:26:08;13.70;71.20
75451;DHT22;64029;48.244;9.188;2023-05-10T12:28:35;13.60;71.80
75451;DHT22;64029;48.244;9.188;2023-05-10T12:31:02;13.60;72.40
75451;DHT22;64029;48.244;9.188;2023-05-10T12:33:35;13.70;71.60
75451;DHT22;64029;48.244;9.188;2023-05-10T12:36:02;13.80;72.40
75451;DHT22;64029;48.244;9.188;2023-05-10T12:38:33;13.90;71.90
75451;DHT22;64029;48.244;9.188;2023-05-10T12:41:01;13.90;71.10
75451;DHT22;64029;48.244;9.188;2023-05-10T12:43:28;13.90;70.20
75451;DHT22;64029;48.244;9.188;2023-05-10T12:45:55;13.80;69.60
75451;DHT22;64029;48.244;9.188;2023-05-10T12:48:23;13.90;72.50
75451;DHT22;64029;48.244;9.188;2023-05-10T12:50:50;13.90;72.00
75451;DHT22;64029;48.244;9.188;2023-05-10T12:53:17;14.10;72.60
75451;DHT22;64029;48.244;9.188;2023-05-10T12:55:45;14.10;70.90
75451;DHT22;64029;48.244;9.188;2023-05-10T12:58:12;14.10;72.60
75451;DHT22;64029;48.244;9.188;2023-05-10T13:00:39;14.20;72.80
75451;DHT22;64029;48.244;9.188;2023-05-10T13:03:05;14.10;72.20
75451;DHT22;64029;48.244;9.188;2023-05-10T13:05:32;14.10;72.10
75451;DHT22;64029;48.244;9.188;2023-05-10T13:07:59;14.20;72.60
75451;DHT22;64029;48.244;9.188;2023-05-10T13:10:27;14.20;71.60
75451;DHT22;64029;48.244;9.188;2023-05-10T13:12:55;14.00;68.10
75451;DHT22;64029;48.244;9.188;2023-05-10T13:15:22;14.00;70.10
75451;DHT22;64029;48.244;9.188;2023-05-10T13:17:49;14.10;71.00
75451;DHT22;64029;48.244;9.188;2023-05-10T13:20:16;14.10;70.70
75451;DHT22;64029;48.244;9.188;2023-05-10T13:22:43;14.10;70.40
75451;DHT22;64029;48.244;9.188;2023-05-10T13:25:11;14.20;71.60
75451;DHT22;64029;48.244;9.188;2023-05-10T13:27:38;14.20;70.90
75451;DHT22;64029;48.244;9.188;2023-05-10T13:30:07;14.20;71.30
75451;DHT22;64029;48.244;9.188;2023-05-10T13:32:34;14.20;70.80
75451;DHT22;64029;48.244;9.188;2023-05-10T13:35:02;14.20;71.20
75451;DHT22;64029;48.244;9.188;2023-05-10T13:37:30;14.20;71.40
75451;DHT22;64029;48.244;9.188;2023-05-10T13:39:57;14.20;70.50
75451;DHT22;64029;48.244;9.188;2023-05-10T13:42:23;14.20;71.20
75451;DHT22;64029;48.244;9.188;2023-05-10T13:44:50;14.30;71.80
75451;DHT22;64029;48.244;9.188;2023-05-10T13:47:19;14.30;71.60
75451;DHT22;64029;48.244;9.188;2023-05-10T13:49:47;14.20;70.30
75451;DHT22;64029;48.244;9.188;2023-05-10T13:52:14;14.30;70.60
75451;DHT22;64029;48.244;9.188;2023-05-10T13:54:40;14.20;70.20
75451;DHT22;64029;48.244;9.188;2023-05-10T13:57:07;14.30;71.50
75451;DHT22;64029;48.244;9.188;2023-05-10T13:59:34;14.30;71.60
75451;DHT22;64029;48.244;9.188;2023-05-10T14:02:01;14.30;71.20
75451;DHT22;64029;48.244;9.188;2023-05-10T14:04:30;14.30;71.00
75451;DHT22;64029;48.244;9.188;2023-05-10T14:06:57;14.30;71.20
75451;DHT22;64029;48.244;9.188;2023-05-10T14:09:24;14.40;71.40
75451;DHT22;64029;48.244;9.188;2023-05-10T14:11:51;14.30;70.60
75451;DHT22;64029;48.244;9.188;2023-05-10T14:14:18;14.30;70.80
75451;DHT22;64029;48.244;9.188;2023-05-10T14:16:45;14.30;70.60
75451;DHT22;64029;48.244;9.188;2023-05-10T14:19:12;14.30;69.60
75451;DHT22;64029;48.244;9.188;2023-05-10T14:21:40;14.30;70.50
75451;DHT22;64029;48.244;9.188;2023-05-10T14:24:08;14.30;70.10
75451;DHT22;64029;48.244;9.188;2023-05-10T14:26:35;14.20;69.20
75451;DHT22;64029;48.244;9.188;2023-05-10T14:29:02;14.20;68.30
75451;DHT22;64029;48.244;9.188;2023-05-10T14:31:29;14.20;69.70
75451;DHT22;64029;48.244;9.188;2023-05-10T14:33:56;14.30;70.00
75451;DHT22;64029;48.244;9.188;2023-05-10T14:36:24;14.30;70.10
75451;DHT22;64029;48.244;9.188;2023-05-10T14:38:53;14.30;70.20
75451;DHT22;64029;48.244;9.188;2023-05-10T14:41:20;14.30;69.60
75451;DHT22;64029;48.244;9.188;2023-05-10T14:43:47;14.40;69.20
75451;DHT22;64029;48.244;9.188;2023-05-10T14:46:14;14.30;69.40
75451;DHT22;64029;48.244;9.188;2023-05-10T14:48:41;14.30;69.50
75451;DHT22;64029;48.244;9.188;2023-05-10T14:51:08;14.30;68.90
75451;DHT22;64029;48.244;9.188;2023-05-10T14:53:35;14.20;68.10
75451;DHT22;64029;48.244;9.188;2023-05-10T14:56:03;14.20;67.60
75451;DHT22;64029;48.244;9.188;2023-05-10T14:58:32;14.30;68.90
75451;DHT22;64029;48.244;9.188;2023-05-10T15:00:59;14.20;67.80
75451;DHT22;64029;48.244;9.188;2023-05-10T15:03:26;14.30;68.80
75451;DHT22;64029;48.244;9.188;2023-05-10T15:05:53;14.30;68.00
75451;DHT22;64029;48.244;9.188;2023-05-10T15:08:21;14.30;67.70
75451;DHT22;64029;48.244;9.188;2023-05-10T15:10:49;14.20;66.70
75451;DHT22;64029;48.244;9.188;2023-05-10T15:13:17;14.10;65.40
75451;DHT22;64029;48.244;9.188;2023-05-10T15:15:44;14.10;67.20
75451;DHT22;64029;48.244;9.188;2023-05-10T15:18:11;14.20;68.10
75451;DHT22;64029;48.244;9.188;2023-05-10T15:20:38;14.20;67.40
75451;DHT22;64029;48.244;9.188;2023-05-10T15:23:05;14.20;67.10
75451;DHT22;64029;48.244;9.188;2023-05-10T15:25:32;14.20;67.40
75451;DHT22;64029;48.244;9.188;2023-05-10T15:28:00;14.20;68.10
75451;DHT22;64029;48.244;9.188;2023-05-10T15:30:29;14.20;67.90
75451;DHT22;64029;48.244;9.188;2023-05-10T15:32:57;14.20;67.00
75451;DHT22;64029;48.244;9.188;2023-05-10T15:35:25;14.10;66.40
75451;DHT22;64029;48.244;9.188;2023-05-10T15:37:52;14.10;66.90
75451;DHT22;64029;48.244;9.188;2023-05-10T15:40:19;14.10;67.50
75451;DHT22;64029;48.244;9.188;2023-05-10T15:42:46;14.20;67.60